Time;durP1;ratioP1;P1;durP2;ratioP2;P2;SDS_P1;SDS_P2;PMS_P1;PMS_P2;Temp;Humidity;BMP_temperature;BMP_pressure;BME280_temperature;BME280_humidity;BME280_pressure;Samples;Min_cycle;Max_cycle;Signal;HPM_P1;HPM_P2
2023/07/10 00:01:10;;;;;;;;;;;26.90;70.50;;;;;;4013284;29;20011;-44
2023/07/10 00:03:51;;;;;;;;;;;26.90;70.50;;;;;;4013515;29;20494;-44
2023/07/10 00:06:34;;;;;;;;;;;26.90;70.60;;;;;;4012744;29;19935;-43
2023/07/10 00:09:14;;;;;;;;;;;26.90;70.60;;;;;;3998476;29;19935;-45
2023/07/10 00:11:55;;;;;;;;;;;26.90;70.60;;;;;;4012613;29;19931;-44
2023/07/10 00:14:36;;;;;;;;;;;26.90;70.60;;;;;;4012967;29;19931;-46
2023/07/10 00:17:17;;;;;;;;;;;26.80;70.60;;;;;;4012502;29;20395;-43
2023/07/10 00:19:59;;;;;;;;;;;26.80;70.70;;;;;;4012456;29;19935;-47
2023/07/10 00:22:41;;;;;;;;;;;26.80;70.70;;;;;;4012623;29;19935;-50
2023/07/10 00:25:23;;;;;;;;;;;26.80;70.80;;;;;;4001044;29;19950;-48
2023/07/10 00:28:06;;;;;;;;;;;26.80;70.90;;;;;;4012748;29;19943;-47
2023/07/10 00:30:49;;;;;;;;;;;26.80;70.90;;;;;;3996613;29;20372;-43
2023/07/10 00:33:30;;;;;;;;;;;26.80;71.00;;;;;;3997034;29;20588;-52
2023/07/10 00:36:22;;;;;;;;;;;26.80;71.00;;;;;;3996086;29;19931;-52
2023/07/10 00:39:16;;;;;;;;;;;26.80;71.00;;;;;;3997359;29;20020;-46
2023/07/10 00:41:58;;;;;;;;;;;26.80;71.10;;;;;;3985341;29;20297;-48
2023/07/10 00:44:42;;;;;;;;;;;26.70;71.10;;;;;;3986133;29;19971;-45
2023/07/10 00:47:26;;;;;;;;;;;26.80;71.20;;;;;;3990449;29;20020;-46
2023/07/10 00:50:11;;;;;;;;;;;26.70;71.10;;;;;;4000506;29;19935;-47
2023/07/10 00:52:53;;;;;;;;;;;26.70;71.20;;;;;;3997377;29;19980;-44
2023/07/10 00:55:37;;;;;;;;;;;26.70;71.20;;;;;;4002752;29;20006;-45
2023/07/10 00:58:22;;;;;;;;;;;26.70;71.30;;;;;;4012239;29;20288;-45
2023/07/10 01:01:10;;;;;;;;;;;26.70;71.40;;;;;;3997372;29;19931;-46
2023/07/10 01:03:52;;;;;;;;;;;26.70;72.20;;;;;;3996064;29;19947;-45
2023/07/10 01:06:33;;;;;;;;;;;26.70;71.40;;;;;;4009312;29;19935;-44
2023/07/10 01:09:14;;;;;;;;;;;26.60;71.30;;;;;;4005729;29;20024;-45
2023/07/10 01:11:56;;;;;;;;;;;26.70;71.50;;;;;;3997345;29;19932;-44
2023/07/10 01:14:37;;;;;;;;;;;26.60;71.40;;;;;;3986161;29;19936;-46
2023/07/10 01:17:19;;;;;;;;;;;26.60;71.40;;;;;;3999120;29;19934;-45
2023/07/10 01:20:02;;;;;;;;;;;26.60;71.50;;;;;;3997281;29;19935;-44
2023/07/10 01:22:45;;;;;;;;;;;26.60;71.60;;;;;;4004941;29;19930;-48
2023/07/10 01:25:26;;;;;;;;;;;26.60;71.60;;;;;;4011094;29;19956;-47
2023/07/10 01:28:09;;;;;;;;;;;26.50;71.50;;;;;;4012019;29;19935;-46
2023/07/10 01:30:51;;;;;;;;;;;26.60;71.50;;;;;;3997107;29;19957;-44
2023/07/10 01:33:35;;;;;;;;;;;26.50;72.30;;;;;;4010962;29;20103;-44
2023/07/10 01:36:18;;;;;;;;;;;26.50;71.60;;;;;;4000786;29;19931;-45
2023/07/10 01:39:03;;;;;;;;;;;26.50;71.50;;;;;;3994248;29;19947;-46
2023/07/10 01:41:45;;;;;;;;;;;26.50;71.70;;;;;;3997932;29;19935;-44
2023/07/10 01:44:26;;;;;;;;;;;26.50;71.80;;;;;;4000515;29;19935;-50
2023/07/10 01:47:08;;;;;;;;;;;26.40;71.80;;;;;;4003247;29;19935;-47
2023/07/10 01:49:51;;;;;;;;;;;26.40;71.90;;;;;;3990672;29;19981;-45
2023/07/10 01:52:32;;;;;;;;;;;26.40;72.80;;;;;;4006269;29;20344;-48
2023/07/10 01:55:15;;;;;;;;;;;26.40;72.00;;;;;;4003187;29;19963;-45
2023/07/10 01:57:56;;;;;;;;;;;26.40;71.90;;;;;;4003041;29;19935;-44
2023/07/10 02:00:37;;;;;;;;;;;26.40;72.00;;;;;;3988037;29;20278;-44
2023/07/10 02:03:17;;;;;;;;;;;26.40;72.00;;;;;;4011169;29;20293;-44
2023/07/10 02:05:58;;;;;;;;;;;26.40;72.00;;;;;;4014608;29;19963;-47
2023/07/10 02:08:38;;;;;;;;;;;26.40;72.80;;;;;;4014592;29;19935;-45
2023/07/10 02:11:21;;;;;;;;;;;26.40;72.00;;;;;;4014825;29;19931;-48
2023/07/10 02:14:02;;;;;;;;;;;26.40;72.00;;;;;;4003242;29;19934;-44
2023/07/10 02:16:43;;;;;;;;;;;26.40;72.10;;;;;;4000529;29;19935;-44
2023/07/10 02:19:24;;;;;;;;;;;26.40;72.10;;;;;;3998373;29;19931;-43
2023/07/10 02:22:05;;;;;;;;;;;26.40;72.10;;;;;;3988089;29;20344;-45
2023/07/10 02:24:45;;;;;;;;;;;26.40;72.20;;;;;;3999391;29;19931;-47
2023/07/10 02:27:27;;;;;;;;;;;26.40;72.20;;;;;;4008864;29;20428;-45
2023/07/10 02:30:09;;;;;;;;;;;26.30;72.10;;;;;;4013413;29;19931;-46
2023/07/10 02:32:51;;;;;;;;;;;26.30;72.10;;;;;;4014023;29;20399;-50
2023/07/10 02:35:33;;;;;;;;;;;26.30;72.10;;;;;;4003266;29;19931;-45
2023/07/10 02:38:14;;;;;;;;;;;26.30;72.10;;;;;;4003872;29;20060;-45
2023/07/10 02:40:56;;;;;;;;;;;26.30;72.10;;;;;;4014752;29;19979;-45
2023/07/10 02:43:38;;;;;;;;;;;26.30;72.10;;;;;;4014026;29;19931;-44
2023/07/10 02:46:19;;;;;;;;;;;26.30;72.10;;;;;;4010605;29;19932;-49
2023/07/10 02:49:00;;;;;;;;;;;26.30;72.10;;;;;;3996439;29;20404;-46
2023/07/10 02:51:41;;;;;;;;;;;26.30;72.20;;;;;;4014083;29;20292;-50
2023/07/10 02:54:22;;;;;;;;;;;26.30;72.20;;;;;;4002918;29;20067;-45
2023/07/10 02:57:03;;;;;;;;;;;26.30;72.20;;;;;;3981464;29;19931;-49
2023/07/10 02:59:45;;;;;;;;;;;26.30;72.20;;;;;;4010244;29;19980;-44
2023/07/10 03:02:25;;;;;;;;;;;26.20;72.10;;;;;;4003179;29;20083;-46
2023/07/10 03:05:06;;;;;;;;;;;26.20;72.20;;;;;;4014057;29;19934;-45
2023/07/10 03:07:47;;;;;;;;;;;26.30;72.20;;;;;;4001676;29;19935;-49
2023/07/10 03:10:28;;;;;;;;;;;26.20;72.20;;;;;;3998981;29;19932;-45
2023/07/10 03:13:09;;;;;;;;;;;26.20;72.20;;;;;;3998502;29;19935;-44
2023/07/10 03:15:58;;;;;;;;;;;26.20;72.20;;;;;;3997769;29;19983;-46
2023/07/10 03:18:39;;;;;;;;;;;26.20;72.20;;;;;;3990160;29;20057;-49
2023/07/10 03:21:21;;;;;;;;;;;26.20;72.20;;;;;;4014068;29;20291;-46
2023/07/10 03:24:03;;;;;;;;;;;26.20;72.30;;;;;;4014330;29;19984;-44
2023/07/10 03:26:43;;;;;;;;;;;26.20;72.20;;;;;;4013454;29;19935;-44
2023/07/10 03:29:24;;;;;;;;;;;26.20;73.10;;;;;;4013607;29;19931;-45
2023/07/10 03:32:07;;;;;;;;;;;26.20;72.30;;;;;;4013899;29;19949;-47
2023/07/10 03:34:49;;;;;;;;;;;26.20;72.20;;;;;;4013829;29;19995;-44
2023/07/10 03:37:29;;;;;;;;;;;26.20;73.10;;;;;;4000677;29;20276;-45
2023/07/10 03:40:11;;;;;;;;;;;26.20;72.20;;;;;;4012667;29;20076;-44
2023/07/10 03:42:51;;;;;;;;;;;26.20;72.20;;;;;;4013207;29;20402;-47
2023/07/10 03:45:32;;;;;;;;;;;26.10;72.10;;;;;;4011710;29;19931;-45
2023/07/10 03:48:14;;;;;;;;;;;26.10;72.10;;;;;;3997980;29;19931;-48
2023/07/10 03:50:55;;;;;;;;;;;26.10;72.20;;;;;;3997898;29;20269;-50
2023/07/10 03:53:35;;;;;;;;;;;26.10;73.20;;;;;;3998243;29;20052;-44
2023/07/10 03:56:16;;;;;;;;;;;26.10;72.40;;;;;;4007368;29;20000;-46
2023/07/10 03:58:56;;;;;;;;;;;26.10;72.40;;;;;;4012507;29;19931;-49
2023/07/10 04:01:39;;;;;;;;;;;26.10;72.40;;;;;;4013487;29;20291;-44
2023/07/10 04:04:21;;;;;;;;;;;26.10;72.50;;;;;;4012512;29;20045;-47
2023/07/10 04:07:01;;;;;;;;;;;26.10;72.40;;;;;;4012607;29;19931;-49
2023/07/10 04:09:43;;;;;;;;;;;26.10;72.40;;;;;;4012412;29;20052;-48
2023/07/10 04:12:23;;;;;;;;;;;26.00;72.40;;;;;;4013304;29;19951;-43
2023/07/10 04:15:06;;;;;;;;;;;26.10;72.50;;;;;;4012754;29;20019;-45
2023/07/10 04:17:47;;;;;;;;;;;26.00;72.40;;;;;;4013233;29;19951;-48
2023/07/10 04:20:29;;;;;;;;;;;26.00;72.40;;;;;;3998515;29;19931;-45
2023/07/10 04:23:10;;;;;;;;;;;26.00;72.40;;;;;;4012387;29;20023;-44
2023/07/10 04:25:51;;;;;;;;;;;26.00;72.40;;;;;;4012524;29;20019;-45
2023/07/10 04:28:32;;;;;;;;;;;26.00;72.40;;;;;;4011628;29;19934;-43
2023/07/10 04:31:12;;;;;;;;;;;26.00;72.40;;;;;;4013133;29;19930;-45
2023/07/10 04:33:53;;;;;;;;;;;26.00;72.40;;;;;;4013018;29;19935;-45
2023/07/10 04:36:36;;;;;;;;;;;26.00;73.20;;;;;;4011647;29;19938;-45
2023/07/10 04:39:16;;;;;;;;;;;26.00;72.30;;;;;;4011802;29;19931;-48
2023/07/10 04:41:57;;;;;;;;;;;26.00;72.30;;;;;;4012837;29;19938;-46
2023/07/10 04:44:38;;;;;;;;;;;26.00;73.20;;;;;;4011522;29;20295;-45
2023/07/10 04:47:18;;;;;;;;;;;26.00;72.40;;;;;;4010670;29;19935;-50
2023/07/10 04:49:59;;;;;;;;;;;26.00;72.40;;;;;;3997719;29;19945;-49
2023/07/10 04:52:41;;;;;;;;;;;26.00;72.40;;;;;;3997357;29;19935;-49
2023/07/10 04:55:22;;;;;;;;;;;25.90;73.10;;;;;;3997682;29;20257;-48
2023/07/10 04:58:03;;;;;;;;;;;26.00;72.30;;;;;;4006108;29;20308;-47
2023/07/10 05:00:44;;;;;;;;;;;26.00;72.30;;;;;;4012462;29;20292;-46
2023/07/10 05:03:25;;;;;;;;;;;26.00;72.40;;;;;;4012280;29;19944;-54
2023/07/10 05:06:05;;;;;;;;;;;25.90;72.20;;;;;;4011838;29;19931;-52
2023/07/10 05:08:48;;;;;;;;;;;25.90;72.20;;;;;;4011154;29;19948;-48
2023/07/10 05:11:30;;;;;;;;;;;26.00;73.30;;;;;;3997454;29;20367;-52
2023/07/10 05:14:11;;;;;;;;;;;25.90;72.20;;;;;;3997228;29;20403;-48
2023/07/10 05:16:52;;;;;;;;;;;25.90;72.10;;;;;;4001088;29;19932;-46
2023/07/10 05:19:34;;;;;;;;;;;25.90;72.70;;;;;;4011104;29;19974;-50
2023/07/10 05:22:15;;;;;;;;;;;25.90;71.80;;;;;;4014342;29;19931;-51
2023/07/10 05:24:57;;;;;;;;;;;25.90;71.80;;;;;;4015446;29;19935;-51
2023/07/10 05:27:38;;;;;;;;;;;25.90;71.60;;;;;;4014623;29;20391;-51
2023/07/10 05:30:19;;;;;;;;;;;25.80;71.30;;;;;;4007073;29;19935;-51
2023/07/10 05:32:59;;;;;;;;;;;25.80;71.20;;;;;;4000256;29;20016;-49
2023/07/10 05:35:48;;;;;;;;;;;25.80;71.30;;;;;;4006039;29;19979;-51
2023/07/10 05:38:29;;;;;;;;;;;25.70;71.20;;;;;;4014732;29;20045;-49
2023/07/10 05:41:12;;;;;;;;;;;25.70;71.20;;;;;;4013191;29;19930;-52
2023/07/10 05:43:53;;;;;;;;;;;25.70;71.10;;;;;;4009101;29;19935;-47
2023/07/10 05:46:33;;;;;;;;;;;25.70;70.90;;;;;;4016782;29;20035;-48
2023/07/10 05:49:14;;;;;;;;;;;25.70;70.90;;;;;;4015485;29;19934;-51
2023/07/10 05:51:54;;;;;;;;;;;25.70;70.90;;;;;;4014982;29;19931;-51
2023/07/10 05:54:35;;;;;;;;;;;25.60;70.90;;;;;;4014704;29;19934;-49
2023/07/10 05:57:17;;;;;;;;;;;25.60;70.90;;;;;;3999177;29;19931;-51
2023/07/10 05:59:58;;;;;;;;;;;25.60;70.80;;;;;;4009530;29;19950;-47
2023/07/10 06:02:39;;;;;;;;;;;25.60;71.10;;;;;;4012051;29;20015;-49
2023/07/10 06:05:20;;;;;;;;;;;25.60;71.00;;;;;;4010614;29;19963;-49
2023/07/10 06:08:01;;;;;;;;;;;25.60;70.80;;;;;;4000938;29;20316;-49
2023/07/10 06:10:42;;;;;;;;;;;25.60;70.90;;;;;;4010714;29;20115;-53
2023/07/10 06:13:24;;;;;;;;;;;25.60;70.80;;;;;;4012381;29;19939;-51
2023/07/10 06:16:06;;;;;;;;;;;25.60;70.80;;;;;;4010558;29;20264;-51
2023/07/10 06:18:48;;;;;;;;;;;25.60;70.60;;;;;;4014273;29;19951;-51
2023/07/10 06:21:29;;;;;;;;;;;25.60;70.60;;;;;;4014131;29;19979;-51
2023/07/10 06:24:10;;;;;;;;;;;25.60;70.60;;;;;;4014356;29;19935;-48
2023/07/10 06:26:51;;;;;;;;;;;25.60;70.60;;;;;;4014467;29;19935;-50
2023/07/10 06:29:34;;;;;;;;;;;25.60;70.60;;;;;;4013140;29;20403;-49
2023/07/10 06:32:15;;;;;;;;;;;25.60;70.60;;;;;;4013053;29;20007;-48
2023/07/10 06:34:55;;;;;;;;;;;25.60;70.60;;;;;;4009119;29;19935;-51
2023/07/10 06:37:36;;;;;;;;;;;25.60;70.60;;;;;;4002472;29;20400;-50
2023/07/10 06:40:17;;;;;;;;;;;25.60;70.50;;;;;;4014265;29;19939;-52
2023/07/10 06:42:58;;;;;;;;;;;25.60;70.30;;;;;;4013492;29;19931;-51
2023/07/10 06:45:40;;;;;;;;;;;25.60;70.30;;;;;;4013312;29;19935;-50
2023/07/10 06:48:21;;;;;;;;;;;25.60;70.30;;;;;;4013326;29;19979;-53
2023/07/10 06:51:04;;;;;;;;;;;25.60;70.10;;;;;;4014079;29;19950;-47
2023/07/10 06:53:45;;;;;;;;;;;25.60;70.00;;;;;;4014296;29;19935;-44
2023/07/10 06:56:26;;;;;;;;;;;25.60;69.80;;;;;;4014178;29;19931;-47
2023/07/10 06:59:07;;;;;;;;;;;25.70;69.70;;;;;;4013812;29;19934;-48
2023/07/10 07:01:49;;;;;;;;;;;25.70;69.40;;;;;;4002200;29;20056;-44
2023/07/10 07:04:30;;;;;;;;;;;25.70;69.10;;;;;;4014446;29;19935;-46
2023/07/10 07:07:11;;;;;;;;;;;25.80;68.80;;;;;;4013540;29;20288;-47
2023/07/10 07:09:51;;;;;;;;;;;25.90;68.60;;;;;;4013179;29;19979;-45
2023/07/10 07:12:32;;;;;;;;;;;25.90;68.40;;;;;;3998363;29;19935;-48
2023/07/10 07:15:14;;;;;;;;;;;26.00;68.00;;;;;;3998724;29;19984;-50
2023/07/10 07:17:56;;;;;;;;;;;26.10;67.50;;;;;;3998372;29;20593;-45
2023/07/10 07:20:39;;;;;;;;;;;26.10;66.90;;;;;;4002704;29;19935;-50
2023/07/10 07:23:20;;;;;;;;;;;26.10;66.20;;;;;;4014014;29;19931;-46
2023/07/10 07:26:00;;;;;;;;;;;26.20;65.60;;;;;;4017779;29;20064;-48
2023/07/10 07:28:41;;;;;;;;;;;26.30;65.30;;;;;;4013734;29;20359;-47
2023/07/10 07:31:21;;;;;;;;;;;26.30;65.00;;;;;;4012679;29;19935;-46
2023/07/10 07:34:03;;;;;;;;;;;26.30;64.70;;;;;;4013477;29;19976;-48
2023/07/10 07:36:44;;;;;;;;;;;26.40;64.60;;;;;;4013070;29;19931;-46
2023/07/10 07:39:28;;;;;;;;;;;26.30;64.40;;;;;;4013352;29;19935;-47
2023/07/10 07:42:09;;;;;;;;;;;26.40;64.40;;;;;;3997607;29;20341;-49
2023/07/10 07:44:50;;;;;;;;;;;26.40;64.40;;;;;;3997684;29;20008;-47
2023/07/10 07:47:31;;;;;;;;;;;26.40;64.30;;;;;;3999360;29;20020;-45
2023/07/10 07:50:13;;;;;;;;;;;26.40;64.10;;;;;;3999424;29;19931;-47
2023/07/10 07:52:54;;;;;;;;;;;26.40;63.70;;;;;;4013417;29;19984;-48
2023/07/10 07:55:35;;;;;;;;;;;26.40;63.40;;;;;;4002513;29;19980;-45
2023/07/10 07:58:16;;;;;;;;;;;26.50;63.20;;;;;;4013104;29;20490;-54
2023/07/10 08:00:57;;;;;;;;;;;26.40;63.20;;;;;;4012285;29;20380;-45
2023/07/10 08:03:38;;;;;;;;;;;26.50;63.50;;;;;;4013094;29;20316;-48
2023/07/10 08:06:20;;;;;;;;;;;26.50;63.50;;;;;;4012907;29;19984;-45
2023/07/10 08:09:02;;;;;;;;;;;26.50;63.40;;;;;;4012911;29;19958;-49
2023/07/10 08:11:43;;;;;;;;;;;26.50;64.40;;;;;;3986253;29;19932;-44
2023/07/10 08:14:24;;;;;;;;;;;26.50;63.40;;;;;;3997966;29;19935;-43
2023/07/10 08:17:04;;;;;;;;;;;26.50;63.30;;;;;;3996611;29;19935;-44
2023/07/10 08:19:45;;;;;;;;;;;26.40;63.20;;;;;;3999598;29;19934;-46
2023/07/10 08:22:27;;;;;;;;;;;26.50;63.30;;;;;;4013101;29;20432;-50
2023/07/10 08:25:08;;;;;;;;;;;26.50;63.20;;;;;;4012444;29;19931;-47
2023/07/10 08:27:49;;;;;;;;;;;26.50;63.20;;;;;;4011302;29;19931;-44
2023/07/10 08:30:30;;;;;;;;;;;26.50;63.10;;;;;;4012534;29;19935;-47
2023/07/10 08:33:11;;;;;;;;;;;26.50;62.90;;;;;;4001011;29;20272;-45
2023/07/10 08:35:55;;;;;;;;;;;26.40;62.70;;;;;;4012042;29;19999;-44
2023/07/10 08:38:39;;;;;;;;;;;26.50;62.60;;;;;;3997620;29;19931;-45
2023/07/10 08:41:20;;;;;;;;;;;26.50;62.80;;;;;;3996726;29;19931;-49
2023/07/10 08:44:01;;;;;;;;;;;26.50;63.10;;;;;;3997389;29;19976;-44
2023/07/10 08:46:42;;;;;;;;;;;26.50;63.00;;;;;;4006038;29;19935;-43
2023/07/10 08:49:26;;;;;;;;;;;26.50;63.00;;;;;;4012792;29;19931;-48
2023/07/10 08:52:07;;;;;;;;;;;26.50;62.90;;;;;;4012642;29;20379;-45
2023/07/10 08:54:49;;;;;;;;;;;26.50;63.00;;;;;;4011743;29;19953;-45
2023/07/10 08:57:32;;;;;;;;;;;26.50;62.60;;;;;;4012409;29;20108;-44
2023/07/10 09:00:14;;;;;;;;;;;26.50;62.30;;;;;;4012708;29;20077;-43
2023/07/10 09:03:01;;;;;;;;;;;26.50;62.10;;;;;;4008094;29;20413;-45
2023/07/10 09:05:44;;;;;;;;;;;26.50;61.70;;;;;;4010022;29;20007;-47
2023/07/10 09:08:27;;;;;;;;;;;26.50;61.50;;;;;;4012226;29;19935;-46
2023/07/10 09:11:12;;;;;;;;;;;26.60;61.70;;;;;;4012126;29;19947;-49
2023/07/10 09:13:56;;;;;;;;;;;26.50;61.60;;;;;;4012129;29;20048;-43
2023/07/10 09:16:37;;;;;;;;;;;26.50;61.50;;;;;;4000005;29;19935;-47
2023/07/10 09:19:19;;;;;;;;;;;26.50;61.50;;;;;;4000144;29;19980;-45
2023/07/10 09:22:00;;;;;;;;;;;26.60;61.20;;;;;;4011324;29;19935;-46
2023/07/10 09:24:40;;;;;;;;;;;26.60;60.90;;;;;;4010616;29;19931;-46
2023/07/10 09:27:24;;;;;;;;;;;26.60;61.00;;;;;;4011998;29;20412;-48
2023/07/10 09:30:14;;;;;;;;;;;26.60;62.30;;;;;;4012256;29;20396;-47
2023/07/10 09:33:00;;;;;;;;;;;26.50;61.30;;;;;;4006500;29;19935;-49
2023/07/10 09:35:42;;;;;;;;;;;26.50;61.00;;;;;;4008865;29;19931;-48
2023/07/10 09:38:23;;;;;;;;;;;26.60;61.10;;;;;;4011989;29;20397;-48
2023/07/10 09:41:10;;;;;;;;;;;26.60;60.90;;;;;;4000412;29;20365;-45
2023/07/10 09:43:54;;;;;;;;;;;26.60;60.90;;;;;;4012039;29;20391;-46
2023/07/10 09:46:38;;;;;;;;;;;26.60;61.00;;;;;;3996892;29;19939;-47
2023/07/10 09:49:20;;;;;;;;;;;26.60;60.90;;;;;;3995696;29;20003;-48
2023/07/10 09:52:05;;;;;;;;;;;26.60;60.80;;;;;;3985484;29;19951;-46
2023/07/10 09:54:45;;;;;;;;;;;26.60;60.50;;;;;;4001800;29;20428;-46
2023/07/10 09:57:26;;;;;;;;;;;26.60;59.90;;;;;;4012689;29;19992;-45
2023/07/10 10:00:16;;;;;;;;;;;26.60;59.60;;;;;;4012164;29;20020;-44
2023/07/10 10:02:58;;;;;;;;;;;26.70;59.70;;;;;;3997068;29;20332;-45
2023/07/10 10:05:40;;;;;;;;;;;26.60;59.70;;;;;;4007006;29;19931;-44
2023/07/10 10:08:22;;;;;;;;;;;26.70;59.70;;;;;;4014653;29;20068;-44
2023/07/10 10:11:05;;;;;;;;;;;26.70;59.50;;;;;;4014304;29;20284;-44
2023/07/10 10:13:48;;;;;;;;;;;26.70;59.30;;;;;;4011368;29;19983;-47
2023/07/10 10:16:34;;;;;;;;;;;26.70;58.90;;;;;;3998773;29;20019;-47
2023/07/10 10:19:17;;;;;;;;;;;26.80;58.70;;;;;;3999297;29;19940;-50
2023/07/10 10:21:58;;;;;;;;;;;26.80;58.70;;;;;;4006088;29;20379;-46
2023/07/10 10:24:39;;;;;;;;;;;26.70;58.40;;;;;;4014293;29;19934;-49
2023/07/10 10:27:24;;;;;;;;;;;26.70;59.10;;;;;;4014493;29;19940;-45
2023/07/10 10:30:17;;;;;;;;;;;26.70;58.20;;;;;;4002651;29;19939;-48
2023/07/10 10:33:04;;;;;;;;;;;26.70;58.20;;;;;;4013429;29;19931;-50
2023/07/10 10:35:49;;;;;;;;;;;26.80;58.70;;;;;;4013687;29;19930;-49
2023/07/10 10:38:36;;;;;;;;;;;26.70;59.00;;;;;;4014123;29;20336;-46
2023/07/10 10:41:29;;;;;;;;;;;26.80;59.00;;;;;;4014579;29;19935;-47
2023/07/10 10:44:15;;;;;;;;;;;26.80;58.80;;;;;;4001717;29;19935;-44
2023/07/10 10:47:02;;;;;;;;;;;26.80;59.10;;;;;;4014504;29;19947;-46
2023/07/10 10:49:51;;;;;;;;;;;26.80;59.20;;;;;;4013908;29;20392;-48
2023/07/10 10:52:35;;;;;;;;;;;26.80;59.20;;;;;;4014280;29;19982;-45
2023/07/10 10:55:19;;;;;;;;;;;26.80;60.00;;;;;;3998856;29;20296;-44
2023/07/10 10:58:06;;;;;;;;;;;26.80;59.40;;;;;;4014442;29;19930;-44
2023/07/10 11:00:54;;;;;;;;;;;26.80;59.30;;;;;;4014074;29;19935;-47
2023/07/10 11:03:38;;;;;;;;;;;26.90;59.20;;;;;;4013783;29;20007;-44
2023/07/10 11:06:38;;;;;;;;;;;26.90;59.20;;;;;;3998793;29;19932;-47
2023/07/10 11:09:21;;;;;;;;;;;26.90;59.30;;;;;;3986740;29;20725;-44
2023/07/10 11:12:03;;;;;;;;;;;26.90;59.20;;;;;;3999118;29;19931;-44
2023/07/10 11:14:44;;;;;;;;;;;26.90;59.10;;;;;;3997652;29;19984;-45
2023/07/10 11:17:25;;;;;;;;;;;26.90;59.00;;;;;;3987629;29;19932;-48
2023/07/10 11:20:07;;;;;;;;;;;26.90;58.90;;;;;;3998531;29;19943;-44
2023/07/10 11:22:53;;;;;;;;;;;26.90;58.70;;;;;;4006002;29;19932;-44
2023/07/10 11:25:35;;;;;;;;;;;26.90;58.90;;;;;;4001829;29;19935;-44
2023/07/10 11:28:19;;;;;;;;;;;26.90;58.80;;;;;;4013173;29;20068;-43
2023/07/10 11:31:22;;;;;;;;;;;26.90;58.70;;;;;;4012012;29;19937;-47
2023/07/10 11:34:22;;;;;;;;;;;27.00;58.60;;;;;;4007857;29;19930;-47
2023/07/10 11:37:02;;;;;;;;;;;27.00;58.50;;;;;;4011420;29;20351;-47
2023/07/10 11:39:45;;;;;;;;;;;27.00;59.10;;;;;;4013063;29;19951;-48
2023/07/10 11:42:26;;;;;;;;;;;27.00;58.40;;;;;;4013456;29;20303;-48
2023/07/10 11:45:13;;;;;;;;;;;27.00;58.50;;;;;;3999090;29;19984;-45
2023/07/10 11:47:56;;;;;;;;;;;27.00;58.40;;;;;;3998496;29;20765;-44
2023/07/10 11:50:37;;;;;;;;;;;27.00;58.40;;;;;;3997935;29;20016;-46
2023/07/10 11:53:22;;;;;;;;;;;27.00;58.20;;;;;;4004699;29;19963;-44
2023/07/10 11:56:07;;;;;;;;;;;27.00;58.10;;;;;;4012106;29;19983;-49
2023/07/10 11:58:48;;;;;;;;;;;27.00;57.90;;;;;;4012489;29;20469;-48
2023/07/10 12:01:32;;;;;;;;;;;27.00;57.90;;;;;;4012998;29;19934;-46
2023/07/10 12:04:14;;;;;;;;;;;27.00;57.90;;;;;;4012149;29;19935;-46
2023/07/10 12:06:57;;;;;;;;;;;27.10;58.10;;;;;;4012351;29;19947;-45
2023/07/10 12:09:38;;;;;;;;;;;27.00;58.10;;;;;;4013258;29;19935;-44
2023/07/10 12:12:20;;;;;;;;;;;27.10;58.10;;;;;;4012040;29;19930;-44
2023/07/10 12:15:02;;;;;;;;;;;27.10;58.10;;;;;;4012194;29;19931;-47
2023/07/10 12:17:43;;;;;;;;;;;27.00;57.60;;;;;;4013083;29;19950;-44
2023/07/10 12:20:26;;;;;;;;;;;27.10;56.80;;;;;;4012867;29;19931;-47
2023/07/10 12:23:10;;;;;;;;;;;27.10;56.70;;;;;;4012505;29;20027;-47
2023/07/10 12:25:52;;;;;;;;;;;27.10;56.90;;;;;;4012760;29;19931;-50
2023/07/10 12:28:34;;;;;;;;;;;27.10;57.00;;;;;;3997467;29;20024;-44
2023/07/10 12:31:15;;;;;;;;;;;27.10;57.00;;;;;;4004082;29;19954;-49
2023/07/10 12:33:56;;;;;;;;;;;27.10;56.80;;;;;;4020105;29;20015;-46
2023/07/10 12:36:38;;;;;;;;;;;27.20;56.80;;;;;;4025102;29;19950;-50
2023/07/10 12:39:19;;;;;;;;;;;27.10;56.80;;;;;;3997849;29;20017;-48
2023/07/10 12:42:00;;;;;;;;;;;27.20;56.30;;;;;;4008866;29;20391;-47
2023/07/10 12:44:45;;;;;;;;;;;27.20;56.50;;;;;;3997622;29;20034;-52
2023/07/10 12:47:26;;;;;;;;;;;27.20;56.50;;;;;;4006928;29;19931;-55
2023/07/10 12:50:07;;;;;;;;;;;27.20;56.80;;;;;;4014346;29;20287;-49
2023/07/10 12:52:50;;;;;;;;;;;27.20;56.90;;;;;;4018565;29;19931;-52
2023/07/10 12:55:32;;;;;;;;;;;27.20;56.90;;;;;;4008015;29;19935;-50
2023/07/10 12:58:14;;;;;;;;;;;27.20;57.00;;;;;;4012207;29;20077;-50
2023/07/10 13:00:59;;;;;;;;;;;27.20;57.10;;;;;;4011182;29;20418;-48
2023/07/10 13:03:40;;;;;;;;;;;27.20;57.10;;;;;;4012489;29;19935;-49
2023/07/10 13:06:25;;;;;;;;;;;27.20;57.40;;;;;;4012641;29;20703;-46
2023/07/10 13:09:06;;;;;;;;;;;27.20;57.60;;;;;;3999653;29;20403;-46
2023/07/10 13:11:47;;;;;;;;;;;27.20;57.70;;;;;;4012467;29;19934;-50
2023/07/10 13:14:28;;;;;;;;;;;27.20;57.60;;;;;;4011966;29;19940;-50
2023/07/10 13:17:12;;;;;;;;;;;27.20;57.40;;;;;;4012477;29;19946;-51
2023/07/10 13:19:55;;;;;;;;;;;27.20;57.10;;;;;;4012027;29;20588;-48
2023/07/10 13:22:48;;;;;;;;;;;27.20;57.50;;;;;;4008350;29;19946;-48
2023/07/10 13:25:31;;;;;;;;;;;27.20;57.10;;;;;;4012028;29;19935;-51
2023/07/10 13:28:22;;;;;;;;;;;27.20;56.10;;;;;;4010876;29;19932;-50
2023/07/10 13:31:12;;;;;;;;;;;27.20;55.80;;;;;;4012215;29;19939;-50
2023/07/10 13:33:54;;;;;;;;;;;27.20;55.70;;;;;;4000482;29;19951;-51
2023/07/10 13:36:34;;;;;;;;;;;27.10;55.30;;;;;;4011699;29;19950;-51
2023/07/10 13:39:16;;;;;;;;;;;27.20;55.20;;;;;;4008229;29;19972;-48
2023/07/10 13:41:58;;;;;;;;;;;27.10;55.10;;;;;;4008004;29;19947;-52
2023/07/10 13:44:39;;;;;;;;;;;27.10;54.90;;;;;;4014855;29;20329;-51
2023/07/10 13:47:20;;;;;;;;;;;27.10;55.00;;;;;;4012594;29;19975;-50
2023/07/10 13:50:02;;;;;;;;;;;27.20;54.90;;;;;;4012167;29;20303;-53
2023/07/10 13:52:43;;;;;;;;;;;27.20;54.60;;;;;;4003005;29;20727;-51
2023/07/10 13:55:24;;;;;;;;;;;27.20;54.40;;;;;;4015305;29;19931;-50
2023/07/10 13:58:05;;;;;;;;;;;27.20;54.10;;;;;;4014563;29;20055;-50
2023/07/10 14:00:46;;;;;;;;;;;27.20;53.70;;;;;;4014422;29;19931;-47
2023/07/10 14:03:29;;;;;;;;;;;27.20;53.20;;;;;;4002738;29;20390;-48
2023/07/10 14:06:31;;;;;;;;;;;27.20;52.70;;;;;;4014441;29;20395;-51
2023/07/10 14:09:13;;;;;;;;;;;27.20;52.50;;;;;;4016658;29;19970;-47
2023/07/10 14:11:55;;;;;;;;;;;27.20;52.20;;;;;;4020145;29;20299;-52
2023/07/10 14:14:35;;;;;;;;;;;27.20;52.20;;;;;;4014737;29;19931;-50
2023/07/10 14:17:18;;;;;;;;;;;27.10;52.10;;;;;;4014159;29;20392;-50
2023/07/10 14:20:00;;;;;;;;;;;27.20;52.30;;;;;;3999572;29;19935;-49
2023/07/10 14:22:42;;;;;;;;;;;27.20;52.20;;;;;;3999058;29;19932;-50
2023/07/10 14:25:23;;;;;;;;;;;27.20;52.40;;;;;;3998414;29;19965;-48
2023/07/10 14:28:05;;;;;;;;;;;27.20;52.40;;;;;;4000920;29;19932;-48
2023/07/10 14:30:46;;;;;;;;;;;27.10;52.50;;;;;;4013633;29;20288;-47
2023/07/10 14:33:27;;;;;;;;;;;27.20;52.60;;;;;;4002713;29;20375;-49
2023/07/10 14:36:12;;;;;;;;;;;27.10;52.20;;;;;;4012531;29;20053;-46
2023/07/10 14:38:54;;;;;;;;;;;27.10;52.20;;;;;;3998913;29;19944;-48
2023/07/10 14:41:35;;;;;;;;;;;27.20;52.20;;;;;;3999185;29;19984;-48
2023/07/10 14:44:18;;;;;;;;;;;27.20;51.90;;;;;;3999054;29;19931;-48
2023/07/10 14:46:59;;;;;;;;;;;27.10;51.90;;;;;;4004789;29;19931;-47
2023/07/10 14:49:47;;;;;;;;;;;27.20;51.80;;;;;;4013095;29;19935;-49
2023/07/10 14:52:29;;;;;;;;;;;27.20;51.70;;;;;;3998651;29;19935;-47
2023/07/10 14:55:14;;;;;;;;;;;27.10;51.50;;;;;;4003819;29;20038;-53
2023/07/10 14:57:55;;;;;;;;;;;27.20;51.20;;;;;;4012360;29;19934;-49
2023/07/10 15:00:35;;;;;;;;;;;27.20;51.30;;;;;;4013828;29;20322;-52
2023/07/10 15:03:17;;;;;;;;;;;27.20;51.30;;;;;;4013699;29;19951;-47
2023/07/10 15:05:59;;;;;;;;;;;27.10;51.10;;;;;;4011923;29;19992;-49
2023/07/10 15:08:39;;;;;;;;;;;27.20;51.00;;;;;;4013629;29;19980;-48
2023/07/10 15:11:22;;;;;;;;;;;27.20;50.90;;;;;;4000523;29;19939;-47
2023/07/10 15:14:09;;;;;;;;;;;27.20;50.70;;;;;;3998799;29;19931;-49
2023/07/10 15:16:50;;;;;;;;;;;27.10;50.30;;;;;;3997943;29;19935;-49
2023/07/10 15:19:30;;;;;;;;;;;27.10;50.00;;;;;;3997530;29;19930;-47
2023/07/10 15:22:12;;;;;;;;;;;27.20;50.00;;;;;;3998047;29;19932;-52
2023/07/10 15:24:52;;;;;;;;;;;27.20;50.10;;;;;;4006094;29;19935;-51
2023/07/10 15:27:34;;;;;;;;;;;27.10;50.70;;;;;;3987440;29;19930;-47
2023/07/10 15:30:15;;;;;;;;;;;27.20;49.80;;;;;;3998580;29;19935;-50
2023/07/10 15:32:57;;;;;;;;;;;27.20;49.70;;;;;;3987241;29;20446;-52
2023/07/10 15:35:38;;;;;;;;;;;27.20;49.60;;;;;;4005452;29;19931;-46
2023/07/10 15:38:20;;;;;;;;;;;27.30;49.80;;;;;;3999291;29;20458;-47
2023/07/10 15:41:02;;;;;;;;;;;27.20;49.70;;;;;;3998099;29;19931;-48
2023/07/10 15:43:45;;;;;;;;;;;27.30;49.00;;;;;;4003516;29;19931;-49